createdAt,value
2018-05-08T00:00:22.246Z,53.68
2018-05-08T00:01:02.649Z,53.87
2018-05-08T00:01:43.018Z,54.23
2018-05-08T00:02:23.437Z,54.33
2018-05-08T00:03:03.919Z,54.04
2018-05-08T00:03:44.272Z,54.04
2018-05-08T00:04:24.668Z,54.04
2018-05-08T00:05:05.178Z,54.33
2018-05-08T00:05:45.523Z,54.8
2018-05-08T00:07:42.962Z,54.71
2018-05-08T00:08:23.319Z,54.23
2018-05-08T00:09:03.722Z,55
2018-05-08T00:09:44.088Z,54.61
2018-05-08T00:10:24.513Z,54.71
2018-05-08T00:11:04.933Z,54.8
2018-05-08T00:13:22.506Z,54.8
2018-05-08T00:14:02.978Z,54.52
2018-05-08T00:14:43.339Z,54.71
2018-05-08T00:15:23.761Z,54.33
2018-05-08T00:16:04.184Z,54.71
2018-05-08T00:16:44.615Z,54.71
2018-05-08T00:17:25.018Z,54.8
2018-05-08T00:18:05.422Z,54.71
2018-05-08T00:18:45.821Z,54.71
2018-05-08T00:19:26.235Z,54.61
2018-05-08T00:20:06.614Z,54.68
2018-05-08T00:20:47.089Z,54.52
2018-05-08T00:21:27.470Z,54.88
2018-05-08T00:22:07.923Z,54.97
2018-05-08T00:24:20.456Z,55.1
2018-05-08T00:25:00.825Z,54.88
2018-05-08T00:25:41.262Z,54.88
2018-05-08T00:26:21.634Z,55
2018-05-08T00:27:02.067Z,55.38
2018-05-08T00:27:42.417Z,55.35
2018-05-08T00:28:22.854Z,55.29
2018-05-08T00:29:03.225Z,55.29
2018-05-08T00:29:43.627Z,55
2018-05-08T00:30:24.050Z,55.19
2018-05-08T00:31:04.499Z,55.38
2018-05-08T00:31:44.886Z,55.38
2018-05-08T00:32:25.325Z,54.8
2018-05-08T00:33:05.733Z,54.33
2018-05-08T00:33:46.083Z,54.8
2018-05-08T00:34:26.458Z,54.71
2018-05-08T00:35:06.935Z,54.9
2018-05-08T00:35:47.290Z,54.9
2018-05-08T00:36:27.710Z,54.9
2018-05-08T00:37:08.123Z,54.8
2018-05-08T00:37:48.485Z,54.8
2018-05-08T00:38:28.918Z,54.71
2018-05-08T00:39:09.322Z,54.71
2018-05-08T00:39:49.721Z,55
2018-05-08T00:40:30.111Z,55.29
2018-05-08T00:41:10.543Z,55.29
2018-05-08T00:43:28.106Z,55.29
2018-05-08T00:44:08.505Z,55.38
2018-05-08T00:46:01.718Z,55.67
2018-05-08T00:46:42.088Z,55.67
2018-05-08T00:47:22.478Z,55.67
2018-05-08T00:48:02.875Z,55.47
2018-05-08T00:48:43.297Z,55.57
2018-05-08T00:49:23.697Z,55.57
2018-05-08T00:50:04.088Z,55.19
2018-05-08T00:50:44.520Z,55.19
2018-05-08T00:51:24.943Z,55.38
2018-05-08T00:52:05.346Z,55.38
2018-05-08T00:52:45.773Z,55.1
2018-05-08T00:53:26.166Z,55
2018-05-08T00:54:06.578Z,54.8
2018-05-08T00:54:47.029Z,54.9
2018-05-08T00:55:27.431Z,55.38
2018-05-08T00:56:07.824Z,55.19
2018-05-08T00:56:48.194Z,55.57
2018-05-08T00:57:28.593Z,55.19
2018-05-08T00:58:09.020Z,55.1
2018-05-08T00:58:49.415Z,55.57
2018-05-08T00:59:29.820Z,55.57
2018-05-08T01:00:10.226Z,55.67
2018-05-08T01:00:50.591Z,56.53
2018-05-08T01:01:30.992Z,56.05
2018-05-08T01:02:11.394Z,56.53
2018-05-08T01:02:51.770Z,56.53
2018-05-08T01:03:32.179Z,56.53
2018-05-08T01:04:12.571Z,56.82
2018-05-08T01:04:53.008Z,56.82
2018-05-08T01:05:33.434Z,57.01
2018-05-08T01:06:13.777Z,57.21
2018-05-08T01:06:54.201Z,57.18
2018-05-08T01:07:34.585Z,57.11
2018-05-08T01:08:14.981Z,57.18
2018-05-08T01:08:55.448Z,57.3
2018-05-08T01:09:35.799Z,57.21
2018-05-08T01:10:16.217Z,57.11
2018-05-08T01:10:56.618Z,57.59
2018-05-08T01:11:37.044Z,57.88
2018-05-08T01:12:17.465Z,58.07
2018-05-08T01:12:57.876Z,57.68
2018-05-08T01:13:38.280Z,57.85
2018-05-08T01:14:18.734Z,57.95
2018-05-08T01:14:59.102Z,58.52
2018-05-08T01:15:39.452Z,58.42
2018-05-08T01:16:19.848Z,58.23
2018-05-08T01:17:00.249Z,58.14
2018-05-08T01:17:40.670Z,58.42
2018-05-08T01:18:21.075Z,58.71
2018-05-08T01:19:01.493Z,58.62
2018-05-08T01:19:41.887Z,58.62
2018-05-08T01:20:22.333Z,58.33
2018-05-08T01:21:02.769Z,58.52
2018-05-08T01:21:43.127Z,58.14
2018-05-08T01:22:23.552Z,58.33
2018-05-08T01:23:04.019Z,58.33
2018-05-08T01:23:44.377Z,58.33
2018-05-08T01:24:24.769Z,58.71
2018-05-08T01:25:05.164Z,58.23
2018-05-08T01:25:45.575Z,58.14
2018-05-08T01:26:25.982Z,58.42
2018-05-08T01:27:06.381Z,58.23
2018-05-08T01:27:46.833Z,58.23
2018-05-08T01:28:27.223Z,58.23
2018-05-08T01:29:07.666Z,58.33
2018-05-08T01:29:48.036Z,58.33
2018-05-08T01:30:28.424Z,58.23
2018-05-08T01:31:08.846Z,58.71
2018-05-08T01:31:49.296Z,58.62
2018-05-08T01:32:29.645Z,58.91
2018-05-08T01:33:10.041Z,59.19
2018-05-08T01:33:50.432Z,59.77
2018-05-08T01:34:30.814Z,59.19
2018-05-08T01:35:11.205Z,59.48
2018-05-08T01:35:51.661Z,59.48
2018-05-08T01:36:32.039Z,59.67
2018-05-08T01:37:12.483Z,59.64
2018-05-08T01:37:52.886Z,60.03
2018-05-08T01:38:33.250Z,59.83
2018-05-08T01:39:13.654Z,60.12
2018-05-08T01:39:54.080Z,59.93
2018-05-08T01:40:34.530Z,60.03
2018-05-08T01:41:14.890Z,60.6
2018-05-08T01:41:55.325Z,60.5
2018-05-08T01:42:35.698Z,60.7
2018-05-08T01:43:16.153Z,60.89
2018-05-08T01:43:56.508Z,61.08
2018-05-08T01:44:36.992Z,61.27
2018-05-08T01:45:17.358Z,61.37
2018-05-08T01:45:57.763Z,61.37
2018-05-08T01:46:38.172Z,61.72
2018-05-08T01:48:51.526Z,62.01
2018-05-08T01:49:31.870Z,62.01
2018-05-08T01:50:12.290Z,62.2
2018-05-08T01:50:52.691Z,62.59
2018-05-08T01:51:33.094Z,62.68
2018-05-08T01:53:45.598Z,62.3
2018-05-08T01:54:25.960Z,62.2
2018-05-08T01:55:06.386Z,62.39
2018-05-08T01:55:46.754Z,62.59
2018-05-08T01:56:27.144Z,62.1
2018-05-08T01:57:07.551Z,62.3
2018-05-08T01:57:47.962Z,62.59
2018-05-08T01:58:28.374Z,63.16
2018-05-08T01:59:08.754Z,62.87
2018-05-08T01:59:49.182Z,62.87
2018-05-08T02:00:29.644Z,62.87
2018-05-08T02:01:10.015Z,62.87
2018-05-08T02:01:50.411Z,62.87
2018-05-08T02:02:30.812Z,63.26
2018-05-08T02:03:11.241Z,63.06
2018-05-08T02:03:51.610Z,62.77
2018-05-08T02:04:32.031Z,63.26
2018-05-08T02:06:24.522Z,63.54
2018-05-08T02:07:05.858Z,63.42
2018-05-08T02:07:46.257Z,63.26
2018-05-08T02:08:26.686Z,63.16
2018-05-08T02:09:07.068Z,63.42
2018-05-08T02:09:47.459Z,63.54
2018-05-08T02:10:27.876Z,63.8
2018-05-08T02:11:08.288Z,63.51
2018-05-08T02:11:48.671Z,63.64
2018-05-08T02:13:35.959Z,63.6
2018-05-08T02:14:16.341Z,63.51
2018-05-08T02:16:03.679Z,63.16
2018-05-08T02:16:44.025Z,63.03
2018-05-08T02:17:24.399Z,63.06
2018-05-08T02:18:04.813Z,63.54
2018-05-08T02:18:45.184Z,63.35
2018-05-08T02:19:25.673Z,63.89
2018-05-08T02:20:05.996Z,63.89
2018-05-08T02:20:46.412Z,64.09
2018-05-08T02:21:26.867Z,63.99
2018-05-08T02:22:07.252Z,64.66
2018-05-08T02:22:47.665Z,64.76
2018-05-08T02:23:28.090Z,64.56
2018-05-08T02:24:08.480Z,64.56
2018-05-08T02:24:48.877Z,64.56
2018-05-08T02:25:29.276Z,64.85
2018-05-08T02:26:09.707Z,65.14
2018-05-08T02:26:50.148Z,65.05
2018-05-08T02:27:30.575Z,65.14
2018-05-08T02:28:10.977Z,64.95
2018-05-08T02:28:51.404Z,65.05
2018-05-08T02:29:31.799Z,64.47
2018-05-08T02:30:12.175Z,64.09
2018-05-08T02:30:52.594Z,64.28
2018-05-08T02:31:33.035Z,64.28
2018-05-08T02:32:13.410Z,63.99
2018-05-08T02:32:53.901Z,64.37
2018-05-08T02:33:34.272Z,64.66
2018-05-08T02:34:14.883Z,65.14
2018-05-08T02:34:55.075Z,64.95
2018-05-08T02:35:35.468Z,64.95
2018-05-08T02:36:15.827Z,65.05
2018-05-08T02:36:56.231Z,65.11
2018-05-08T02:37:36.678Z,65.14
2018-05-08T02:38:17.071Z,65.11
2018-05-08T02:38:57.465Z,65.01
2018-05-08T02:39:37.874Z,65.58
2018-05-08T02:40:18.187Z,65.49
2018-05-08T02:40:58.591Z,65.11
2018-05-08T02:41:38.983Z,65.68
2018-05-08T02:42:19.340Z,65.58
2018-05-08T02:42:59.778Z,66.16
2018-05-08T02:43:40.195Z,65.88
2018-05-08T02:44:20.602Z,66.35
2018-05-08T02:45:01.051Z,66.45
2018-05-08T02:45:41.441Z,66.25
2018-05-08T02:46:21.832Z,66.35
2018-05-08T02:47:02.246Z,66.45
2018-05-08T02:47:42.656Z,66.64
2018-05-08T02:48:23.041Z,67.18
2018-05-08T02:49:03.426Z,66.41
2018-05-08T02:49:43.871Z,66.7
2018-05-08T02:50:24.256Z,66.51
2018-05-08T02:51:04.655Z,67.27
2018-05-08T02:51:45.099Z,66.99
2018-05-08T02:52:25.580Z,66.99
2018-05-08T02:53:05.919Z,67.08
2018-05-08T02:53:46.340Z,66.8
2018-05-08T02:54:26.752Z,67.08
2018-05-08T02:55:07.169Z,66.8
2018-05-08T02:55:47.516Z,67.08
2018-05-08T02:56:27.931Z,67.08
2018-05-08T02:57:08.305Z,66.99
2018-05-08T02:57:48.726Z,67.37
2018-05-08T02:58:29.090Z,67.27
2018-05-08T02:59:09.533Z,67.37
2018-05-08T02:59:49.975Z,67.37
2018-05-08T03:00:30.381Z,67.47
2018-05-08T03:01:10.747Z,67.08
2018-05-08T03:01:51.146Z,66.93
2018-05-08T03:02:31.556Z,66.99
2018-05-08T03:03:11.948Z,66.8
2018-05-08T03:03:52.365Z,67.02
2018-05-08T03:04:32.818Z,66.8
2018-05-08T03:05:13.241Z,67.02
2018-05-08T03:05:53.668Z,66.93
2018-05-08T03:06:34.026Z,66.83
2018-05-08T03:07:14.434Z,66.99
2018-05-08T03:07:54.858Z,67.11
2018-05-08T03:08:35.280Z,66.99
2018-05-08T03:09:15.648Z,67.02
2018-05-08T03:09:56.060Z,67.21
2018-05-08T03:10:36.458Z,67.21
2018-05-08T03:11:16.882Z,66.41
2018-05-08T03:11:57.298Z,67.27
2018-05-08T03:12:37.668Z,67.18
2018-05-08T03:13:18.094Z,66.8
2018-05-08T03:13:58.503Z,66.89
2018-05-08T03:14:38.928Z,67.08
2018-05-08T03:15:19.273Z,66.99
2018-05-08T03:15:59.696Z,67.56
2018-05-08T03:16:40.097Z,67.56
2018-05-08T03:17:20.464Z,67.37
2018-05-08T03:18:00.874Z,67.27
2018-05-08T03:18:41.292Z,67.56
2018-05-08T03:19:21.721Z,67.76
2018-05-08T03:20:02.108Z,67.66
2018-05-08T03:20:42.530Z,67.76
2018-05-08T03:21:22.919Z,67.85
2018-05-08T03:22:03.312Z,67.76
2018-05-08T03:22:43.746Z,68.62
2018-05-08T03:23:24.105Z,68.33
2018-05-08T03:24:04.516Z,68.23
2018-05-08T03:24:44.889Z,68.33
2018-05-08T03:25:25.325Z,68.62
2018-05-08T03:26:05.726Z,68.42
2018-05-08T03:26:46.120Z,68.9
2018-05-08T03:27:26.558Z,68.9
2018-05-08T03:28:07.009Z,68.9
2018-05-08T03:28:47.406Z,68.62
2018-05-08T03:29:27.807Z,68.13
2018-05-08T03:31:25.269Z,68.13
2018-05-08T03:32:05.607Z,68.42
2018-05-08T03:32:46.040Z,68.33
2018-05-08T03:33:26.418Z,68.42
2018-05-08T03:34:06.828Z,68.23
2018-05-08T03:34:47.249Z,68.23
2018-05-08T03:35:27.645Z,68.71
2018-05-08T03:36:08.053Z,68.9
2018-05-08T03:36:48.457Z,68.71
2018-05-08T03:37:28.874Z,68.71
2018-05-08T03:38:09.278Z,68.9
2018-05-08T03:38:49.703Z,69
2018-05-08T03:41:07.335Z,69.38
2018-05-08T03:41:47.648Z,69.38
2018-05-08T03:42:28.043Z,69.64
2018-05-08T03:43:08.450Z,69.82
2018-05-08T03:43:48.874Z,69.35
2018-05-08T03:44:29.260Z,69.06
2018-05-08T03:45:09.684Z,68.87
2018-05-08T03:45:50.098Z,69.64
2018-05-08T03:46:30.505Z,69.73
2018-05-08T03:47:10.942Z,69.54
2018-05-08T03:47:51.372Z,69.35
2018-05-08T03:48:31.775Z,69.35
2018-05-08T03:49:12.152Z,69.35
2018-05-08T03:49:52.613Z,69.82
2018-05-08T03:50:32.968Z,69.54
2018-05-08T03:51:13.362Z,69.82
2018-05-08T03:51:53.759Z,69.35
2018-05-08T03:52:34.159Z,69.15
2018-05-08T03:53:14.552Z,69.15
2018-05-08T03:53:54.950Z,69.15
2018-05-08T03:54:35.319Z,69.35
2018-05-08T03:55:15.710Z,69.73
2018-05-08T03:55:56.123Z,69.73
2018-05-08T03:56:36.483Z,69.64
2018-05-08T03:57:16.951Z,69.64
2018-05-08T03:57:57.286Z,69.82
2018-05-08T03:59:44.837Z,69.64
2018-05-08T04:00:25.152Z,69.82
2018-05-08T04:01:05.596Z,69.82
2018-05-08T04:01:45.936Z,69.73
2018-05-08T04:41:36.394Z,62.9
2018-05-08T04:42:16.643Z,62.9
2018-05-08T04:42:57.194Z,63.09
2018-05-08T04:43:37.502Z,62.42
2018-05-08T04:44:17.959Z,61.85
2018-05-08T04:44:58.402Z,61.46
2018-05-08T04:45:38.823Z,61.69
2018-05-08T04:46:19.170Z,60.92
2018-05-08T04:46:59.564Z,60.63
2018-05-08T04:47:40.075Z,59.77
2018-05-08T04:48:20.473Z,59.99
2018-05-08T04:49:00.980Z,58.94
2018-05-08T04:49:41.446Z,58.45
2018-05-08T04:50:21.921Z,57.88
2018-05-08T04:51:02.560Z,57.9
2018-05-08T04:51:42.881Z,57.23
2018-05-08T04:53:55.915Z,56.49
2018-05-08T04:54:36.250Z,56.01
2018-05-08T04:56:51.405Z,54.89
2018-05-08T04:57:31.827Z,54.5
2018-05-08T04:58:12.302Z,54.12
2018-05-08T04:58:52.746Z,53.38
2018-05-08T04:59:33.257Z,53.19
2018-05-08T05:00:13.704Z,52.99
2018-05-08T05:00:54.154Z,52.51
2018-05-08T05:01:34.551Z,52.06
2018-05-08T05:02:14.969Z,51.29
2018-05-08T05:02:55.360Z,50.81
2018-05-08T05:03:35.794Z,50.51
2018-05-08T05:04:16.208Z,50.06
2018-05-08T05:04:56.636Z,50.06
2018-05-08T05:05:37.039Z,49.6
2018-05-08T05:06:17.629Z,49.12
2018-05-08T05:06:58.195Z,48.47
2018-05-08T05:07:38.550Z,47.7
2018-05-08T05:08:18.989Z,46.83
2018-05-08T05:08:59.451Z,46.55
2018-05-08T05:09:39.746Z,46.66
2018-05-08T05:10:20.200Z,45.99
2018-05-08T05:11:00.565Z,45.82
2018-05-08T05:11:41.052Z,44.76
2018-05-08T05:12:21.432Z,44.68
2018-05-08T05:13:01.934Z,44.01
2018-05-08T05:13:42.417Z,43.14
2018-05-08T05:14:23.186Z,43.16
2018-05-08T05:15:03.543Z,42.77
2018-05-08T05:15:43.939Z,42.12
2018-05-08T05:16:24.386Z,41.73
2018-05-08T05:17:04.876Z,41.54
2018-05-08T05:17:45.265Z,41.44
2018-05-08T05:18:25.777Z,41.54
2018-05-08T05:19:06.169Z,40.67
2018-05-08T05:19:46.724Z,41.05
2018-05-08T05:20:27.344Z,40.59
2018-05-08T05:21:07.976Z,40.59
2018-05-08T05:21:48.973Z,40.4
2018-05-08T05:22:29.836Z,40.11
2018-05-08T05:23:10.449Z,39.72
2018-05-08T05:23:51.537Z,39.64
2018-05-08T05:24:31.614Z,38.97
2018-05-08T05:25:12.136Z,38.68
2018-05-08T05:25:52.594Z,38.7
2018-05-08T05:26:33.193Z,38.12
2018-05-08T05:27:14.560Z,37.82
2018-05-08T05:27:55.112Z,38.02
2018-05-08T05:28:35.491Z,37.92
2018-05-08T05:29:17.757Z,37.82
2018-05-08T05:29:59.585Z,37.34
2018-05-08T05:30:40.032Z,37.36
2018-05-08T05:31:20.479Z,37.17
2018-05-08T05:32:00.994Z,36.68
2018-05-08T05:32:41.305Z,36.49
2018-05-08T05:33:21.767Z,36.41
2018-05-08T05:34:02.173Z,35.94
2018-05-08T05:34:42.911Z,35.73
2018-05-08T05:36:30.771Z,35.17
2018-05-08T05:37:12.169Z,34.89
2018-05-08T05:37:52.565Z,34.51
2018-05-08T05:38:33.699Z,34.33
2018-05-08T05:39:14.191Z,34.23
2018-05-08T05:39:54.616Z,34.33
2018-05-08T05:40:35.297Z,34.33
2018-05-08T05:41:15.649Z,34.25
2018-05-08T05:41:56.145Z,34.25
2018-05-08T05:42:36.604Z,34.25
2018-05-08T05:43:16.903Z,33.96
2018-05-08T05:43:57.324Z,33.47
2018-05-08T05:44:37.787Z,33.01
2018-05-08T05:45:18.168Z,32.62
2018-05-08T05:45:58.717Z,33.11
2018-05-08T05:46:39.242Z,32.34
2018-05-08T05:47:19.672Z,31.95
2018-05-08T05:48:00.059Z,31.95
2018-05-08T05:48:40.836Z,31.77
2018-05-08T05:49:21.278Z,31.58
2018-05-08T05:50:01.717Z,31.19
2018-05-08T05:50:42.246Z,31
2018-05-08T05:51:22.750Z,30.9
2018-05-08T05:52:03.985Z,30.33
2018-05-08T05:52:43.856Z,30.43
2018-05-08T05:53:24.437Z,30.33
2018-05-08T05:54:04.740Z,30.33
2018-05-08T05:56:20.536Z,29.57
2018-05-08T05:57:01.001Z,29.38
2018-05-08T05:57:41.236Z,29.38
2018-05-08T05:58:21.660Z,29.38
2018-05-08T05:59:02.136Z,29.28
2018-05-08T05:59:42.536Z,29.38
2018-05-08T06:00:22.921Z,29.28
2018-05-08T06:01:03.344Z,29.08
2018-05-08T06:01:43.754Z,29.1
2018-05-08T06:02:24.153Z,29.1
2018-05-08T06:03:04.657Z,29.39
2018-05-08T06:03:45.084Z,29.57
2018-05-08T06:04:25.499Z,29
2018-05-08T06:05:05.899Z,29
2018-05-08T06:05:46.535Z,28.33
2018-05-08T06:06:27.715Z,28.23
2018-05-08T06:07:08.292Z,28.63
2018-05-08T06:07:49.200Z,29.21
2018-05-08T06:08:32.739Z,28.43
2018-05-08T06:09:15.135Z,27.94
2018-05-08T06:09:55.452Z,28.14
2018-05-08T06:10:35.989Z,28.33
2018-05-08T06:11:19.818Z,28.14
2018-05-08T06:12:01.244Z,28.23
2018-05-08T06:12:41.607Z,28.14
2018-05-08T06:13:22.382Z,27.94
2018-05-08T06:14:02.712Z,28.44
2018-05-08T06:14:43.335Z,28.15
2018-05-08T06:15:23.792Z,28.25
2018-05-08T06:16:04.280Z,28.15
2018-05-08T06:16:45.501Z,28.15
2018-05-08T06:17:28.644Z,28.05
2018-05-08T06:18:10.012Z,27.86
2018-05-08T06:18:52.869Z,27.87
2018-05-08T06:19:33.631Z,27.68
2018-05-08T06:20:14.044Z,27.39
2018-05-08T06:20:54.635Z,27.48
2018-05-08T06:21:35.137Z,27.29
2018-05-08T06:22:15.532Z,27.5
2018-05-08T06:22:56.539Z,27.11
2018-05-08T06:23:37.575Z,27.2
2018-05-08T06:24:18.099Z,27.3
2018-05-08T06:24:58.608Z,27.31
2018-05-08T06:25:39.057Z,27.12
2018-05-08T06:26:19.581Z,26.63
2018-05-08T06:27:00.083Z,26.82
2018-05-08T06:27:40.559Z,26.82
2018-05-08T06:28:22.011Z,26.53
2018-05-08T06:29:02.633Z,26.53
2018-05-08T06:29:57.879Z,26.63
2018-05-08T06:30:38.365Z,26.43
2018-05-08T06:31:18.840Z,26.35
2018-05-08T06:31:59.267Z,25.57
2018-05-08T06:32:39.770Z,24.99
2018-05-08T06:33:20.179Z,24.98
2018-05-08T06:34:00.619Z,24.88
2018-05-08T06:34:41.064Z,24.68
2018-05-08T06:35:22.109Z,25.16
2018-05-08T06:36:02.508Z,25.16
2018-05-08T06:36:42.928Z,25.37
2018-05-08T06:37:23.348Z,25.46
2018-05-08T06:38:03.775Z,25.36
2018-05-08T06:38:44.440Z,25.26
2018-05-08T06:39:26.388Z,25.65
2018-05-08T06:40:07.619Z,25.65
2018-05-08T06:42:13.073Z,26.13
2018-05-08T06:43:00.104Z,26.51
2018-05-08T06:43:40.554Z,26.7
2018-05-08T06:44:21.009Z,27
2018-05-08T06:45:05.195Z,27
2018-05-08T06:45:45.682Z,27.18
2018-05-08T06:49:23.994Z,27.56
2018-05-08T06:50:04.360Z,27.37
2018-05-08T06:50:44.798Z,27.37
2018-05-08T06:51:25.245Z,27.55
2018-05-08T06:52:05.669Z,28.15
2018-05-08T06:52:46.068Z,28.15
2018-05-08T06:53:26.626Z,28.14
2018-05-08T06:54:08.999Z,28.14
2018-05-08T06:54:49.514Z,28.04
2018-05-08T06:55:29.916Z,28.23
2018-05-08T06:56:10.310Z,28.23
2018-05-08T06:56:50.728Z,28.42
2018-05-08T06:57:31.146Z,29.1
2018-05-08T06:58:11.559Z,29.08
2018-05-08T06:58:52.003Z,28.4
2018-05-08T06:59:32.442Z,28.5
2018-05-08T07:00:12.896Z,28.5
2018-05-08T07:00:53.316Z,28.59
2018-05-08T07:01:33.818Z,29.08
2018-05-08T07:02:14.211Z,29.08
2018-05-08T07:02:54.813Z,29.46
2018-05-08T07:03:35.473Z,29.65
2018-05-08T07:04:15.980Z,29.85
2018-05-08T07:04:56.386Z,29.65
2018-05-08T07:05:36.819Z,30.04
2018-05-08T07:06:17.229Z,30.14
2018-05-08T07:06:57.642Z,29.55
2018-05-08T07:07:38.065Z,29.46
2018-05-08T07:08:19.329Z,29.66
2018-05-08T07:08:59.215Z,29.55
2018-05-08T07:09:39.688Z,30.32
2018-05-08T07:10:20.124Z,30.22
2018-05-08T07:11:00.600Z,30.59
2018-05-08T07:11:41.819Z,31.18
2018-05-08T07:12:22.331Z,31.26
2018-05-08T07:13:02.643Z,31.82
2018-05-08T07:13:43.240Z,31.81
2018-05-08T07:14:23.775Z,33.17
2018-05-08T07:15:04.100Z,33.73
2018-05-08T07:15:44.617Z,34.22
2018-05-08T07:16:24.909Z,33.92
2018-05-08T07:17:05.325Z,34.02
2018-05-08T07:17:45.829Z,34.23
2018-05-08T07:18:26.408Z,34.23
2018-05-08T07:19:06.811Z,34.23
2018-05-08T07:19:47.312Z,32.78
2018-05-08T07:20:27.812Z,32.78
2018-05-08T07:21:08.373Z,32.97
2018-05-08T07:21:48.822Z,32.97
2018-05-08T07:22:29.290Z,33.17
2018-05-08T07:23:09.739Z,33.07
2018-05-08T07:23:50.188Z,33.46
2018-05-08T07:24:31.924Z,32.57
2018-05-08T07:25:12.284Z,33.42
2018-05-08T07:25:52.695Z,33.83
2018-05-08T07:26:33.172Z,33.64
2018-05-08T07:27:13.747Z,33.44
2018-05-08T07:27:54.276Z,33.34
2018-05-08T07:28:34.679Z,33.64
2018-05-08T07:29:15.237Z,33.54
2018-05-08T07:29:55.894Z,33.25
2018-05-08T07:30:36.203Z,32.78
2018-05-08T07:31:16.633Z,33.26
2018-05-08T07:31:57.356Z,33.65
2018-05-08T07:32:38.587Z,32.29
2018-05-08T07:33:19.580Z,33.06
2018-05-08T07:34:00.938Z,32.57
2018-05-08T07:34:45.389Z,33.06
2018-05-08T07:35:26.042Z,32.96
2018-05-08T07:36:06.509Z,33.44
2018-05-08T07:36:46.906Z,33.25
2018-05-08T07:37:27.362Z,33.15
2018-05-08T07:38:07.874Z,32.78
2018-05-08T07:38:48.318Z,32.78
2018-05-08T07:39:28.686Z,32.76
2018-05-08T07:40:09.183Z,32.75
2018-05-08T07:40:49.622Z,33.7
2018-05-08T07:41:30.026Z,34.57
2018-05-08T07:42:10.672Z,35.35
2018-05-08T07:42:51.068Z,35.73
2018-05-08T07:43:31.738Z,34.67
2018-05-08T07:44:12.244Z,35.05
2018-05-08T07:44:52.677Z,34.77
2018-05-08T07:45:33.338Z,34.96
2018-05-08T07:46:13.645Z,34.57
2018-05-08T07:46:54.237Z,34.75
2018-05-08T07:47:34.663Z,35.25
2018-05-08T07:48:15.051Z,34.96
2018-05-08T07:48:55.547Z,35.05
2018-05-08T07:49:37.794Z,35.62
2018-05-08T07:50:18.184Z,35.15
2018-05-08T07:51:00.183Z,34.94
2018-05-08T07:51:41.440Z,35.13
2018-05-08T07:52:21.629Z,35.52
2018-05-08T07:53:02.598Z,35.52
2018-05-08T07:53:43.153Z,35.42
2018-05-08T07:54:23.596Z,35.54
2018-05-08T07:55:04.104Z,35.23
2018-05-08T07:55:44.592Z,35.25
2018-05-08T07:56:25.061Z,35.35
2018-05-08T07:57:05.595Z,34.88
2018-05-08T07:57:46.136Z,34.2
2018-05-08T07:58:26.597Z,34.22
2018-05-08T07:59:07.007Z,34.22
2018-05-08T07:59:47.504Z,34.02
2018-05-08T08:00:28.315Z,33.54
2018-05-08T08:01:08.696Z,33.56
2018-05-08T08:01:49.217Z,33.36
2018-05-08T08:02:29.689Z,32.87
2018-05-08T08:03:10.249Z,32.97
2018-05-08T08:03:51.321Z,32.5
2018-05-08T08:04:31.877Z,32.21
2018-05-08T08:05:14.567Z,32.32
2018-05-08T08:05:55.280Z,31.82
2018-05-08T08:06:36.044Z,31.44
2018-05-08T08:07:16.480Z,31.55
2018-05-08T08:07:59.795Z,31.45
2018-05-08T08:08:40.147Z,31.45
2018-05-08T08:09:20.618Z,31.65
2018-05-08T08:10:01.053Z,31.57
2018-05-08T08:10:41.535Z,31.57
2018-05-08T08:11:21.949Z,31.27
2018-05-08T08:12:02.506Z,31.1
2018-05-08T08:12:42.920Z,30.71
2018-05-08T08:13:23.420Z,30.9
2018-05-08T08:14:03.894Z,31
2018-05-08T08:14:45.030Z,31.08
2018-05-08T08:15:25.697Z,31.27
2018-05-08T08:16:07.008Z,31.55
2018-05-08T08:16:47.576Z,32.02
2018-05-08T08:17:28.266Z,32.31
2018-05-08T08:18:08.712Z,32.78
2018-05-08T08:18:49.261Z,33.56
2018-05-08T08:19:32.547Z,33.36
2018-05-08T08:20:11.015Z,33.73
2018-05-08T08:20:52.905Z,34.41
2018-05-08T08:21:33.368Z,34.8
2018-05-08T08:22:14.394Z,34.31
2018-05-08T08:22:55.179Z,33.84
2018-05-08T08:23:36.370Z,33.75
2018-05-08T08:24:16.457Z,34.12
2018-05-08T08:24:56.875Z,34.22
2018-05-08T08:25:37.336Z,34.22
2018-05-08T08:26:17.810Z,34.43
2018-05-08T08:26:58.391Z,33.94
2018-05-08T08:27:38.890Z,33.28
2018-05-08T08:28:19.369Z,32.97
2018-05-08T08:28:59.882Z,32.59
2018-05-08T08:29:41.479Z,32.78
2018-05-08T08:30:21.391Z,34.14
2018-05-08T08:31:02.927Z,33.36
2018-05-08T08:31:43.101Z,33.57
2018-05-08T08:32:23.477Z,32.6
2018-05-08T08:33:03.992Z,32.79
2018-05-08T08:33:44.410Z,32.5
2018-05-08T08:34:24.946Z,32.23
2018-05-08T08:35:05.655Z,31.94
2018-05-08T08:35:49.909Z,32.32
2018-05-08T08:36:30.622Z,31.35
2018-05-08T08:37:12.405Z,31.65
2018-05-08T08:37:52.074Z,31.35
2018-05-08T08:38:33.441Z,31.37
2018-05-08T08:39:14.098Z,31.66
2018-05-08T08:39:54.498Z,31.08
2018-05-08T08:40:35.057Z,31.29
2018-05-08T08:41:15.617Z,31
2018-05-08T08:41:56.230Z,30.98
2018-05-08T08:42:36.725Z,31.27
2018-05-08T08:43:17.423Z,31.57
2018-05-08T08:43:57.873Z,31.66
2018-05-08T08:44:39.985Z,31.95
2018-05-08T08:45:20.130Z,31.97
2018-05-08T08:46:01.754Z,31.38
2018-05-08T08:46:41.885Z,31.18
2018-05-08T08:47:22.438Z,31.68
2018-05-08T08:48:03.883Z,30.9
2018-05-08T08:48:43.809Z,31
2018-05-08T08:49:25.468Z,31.29
2018-05-08T08:50:06.874Z,31.19
2018-05-08T08:50:47.866Z,30.71
2018-05-08T08:51:29.018Z,30.24
2018-05-08T08:52:10.119Z,30.61
2018-05-08T08:52:50.650Z,30.8
2018-05-08T08:53:32.373Z,30.69
2018-05-08T08:54:12.071Z,31.57
2018-05-08T08:54:52.784Z,32.34
2018-05-08T08:55:33.607Z,31.57
2018-05-08T08:56:14.153Z,31.76
2018-05-08T08:56:54.638Z,31.76
2018-05-08T08:57:35.078Z,32.24
2018-05-08T08:58:15.602Z,31.66
2018-05-08T08:58:56.053Z,32.24
2018-05-08T08:59:36.540Z,31.76
2018-05-08T09:00:18.402Z,32.15
2018-05-08T09:00:59.258Z,31.68
2018-05-08T09:01:39.894Z,31.38
2018-05-08T09:02:20.395Z,30.91
2018-05-08T09:03:01.151Z,30.62
2018-05-08T09:03:41.600Z,30.52
2018-05-08T09:04:22.082Z,29.76
2018-05-08T09:05:03.384Z,29.66
2018-05-08T09:05:45.391Z,29.19
2018-05-08T09:06:24.899Z,29.29
2018-05-08T09:07:05.377Z,29.3
2018-05-08T09:07:45.797Z,29.02
2018-05-08T09:08:26.285Z,29.11
2018-05-08T09:09:07.379Z,29.02
2018-05-08T09:09:47.792Z,28.72
2018-05-08T09:10:29.157Z,28.63
2018-05-08T09:11:09.639Z,28.25
2018-05-08T09:11:50.043Z,28.05
2018-05-08T09:12:30.576Z,28.34
2018-05-08T09:13:10.992Z,28.15
2018-05-08T09:13:51.375Z,28.34
2018-05-08T09:14:32.071Z,28.34
2018-05-08T09:15:12.370Z,28.44
2018-05-08T09:15:52.861Z,28.15
2018-05-08T09:16:33.319Z,28.05
2018-05-08T09:17:13.918Z,27.95
2018-05-08T09:17:54.400Z,27.39
2018-05-08T09:18:34.785Z,27.48
2018-05-08T09:19:15.604Z,27.68
2018-05-08T09:19:56.062Z,27.3
2018-05-08T09:20:36.519Z,27.31
2018-05-08T09:21:17.884Z,27.22
2018-05-08T09:21:57.976Z,27.2
2018-05-08T09:22:38.368Z,27.18
2018-05-08T09:23:18.912Z,28.34
2018-05-08T09:23:59.271Z,28.43
2018-05-08T09:24:40.562Z,28.72
2018-05-08T09:25:21.222Z,29.02
2018-05-08T09:26:01.717Z,28.92
2018-05-08T09:26:42.152Z,28.63
2018-05-08T09:27:22.584Z,28.25
2018-05-08T09:28:03.165Z,28.45
2018-05-08T09:28:44.051Z,27.95
2018-05-08T09:29:24.859Z,28.33
2018-05-08T09:30:05.679Z,28.33
2018-05-08T09:30:47.462Z,28.15
2018-05-08T09:31:28.296Z,28.34
2018-05-08T09:32:08.818Z,28.44
2018-05-08T09:32:49.347Z,28.54
2018-05-08T09:33:30.855Z,28.34
2018-05-08T09:34:11.453Z,28.54
2018-05-08T09:34:51.852Z,27.95
2018-05-08T09:35:33.904Z,28.16
2018-05-08T09:36:13.952Z,28.16
2018-05-08T09:36:54.819Z,27.59
2018-05-08T09:37:35.651Z,27.3
2018-05-08T09:38:16.233Z,27.11
2018-05-08T09:38:58.068Z,27.2
2018-05-08T09:39:40.012Z,27.58
2018-05-08T09:40:20.908Z,27.39
2018-05-08T09:41:01.725Z,27.87
2018-05-08T09:41:42.744Z,27.4
2018-05-08T09:42:24.404Z,27.51
2018-05-08T09:43:04.270Z,26.82
2018-05-08T09:43:45.061Z,26.14
2018-05-08T09:44:25.559Z,26.14
2018-05-08T09:45:06.414Z,26.34
2018-05-08T09:45:47.038Z,26.53
2018-05-08T09:46:27.769Z,26.61
2018-05-08T09:47:08.228Z,27.56
2018-05-08T09:47:48.748Z,27.86
2018-05-08T09:48:29.348Z,27.97
2018-05-08T09:49:10.790Z,27.87
2018-05-08T09:49:51.728Z,27.48
2018-05-08T09:50:33.408Z,26.91
2018-05-08T09:51:13.909Z,26.82
2018-05-08T09:51:54.360Z,26.03
2018-05-08T09:52:34.851Z,25.93